Terminal Aerodrome Forecast
Issued by NWS Cleveland, OH

Home | Current Version | Previous Version | Text Only | Print | Product List | Glossary Off
Versions: 1 2 3 4 5 6 7 8 9 10 11 12 13 14 15 16 17 18 19 20 21

000
FTUS41 KCLE 161700
TAFMFD
TAF
KMFD 161736Z 1618/1718 24010G22KT 6SM -RA BR OVC012
      TEMPO 1618/1621 3SM -RA OVC008
     FM162200 24010G22KT 3SM BR VCSH OVC008
     FM170300 25012G22KT P6SM OVC008
     FM170700 25014G22KT P6SM OVC012
     FM171500 26014G25KT P6SM BKN015=

USA.gov is the U.S. government's official web portal to all federal, state and local government web resources and services.